createdAt,value
2023-03-06T00:00:40.788Z,0.29
2023-03-06T00:03:19.034Z,0.33
2023-03-06T00:05:47.996Z,0.34
2023-03-06T00:08:17.159Z,0.40
2023-03-06T00:10:46.607Z,0.44
2023-03-06T00:13:19.199Z,0.50
2023-03-06T00:15:49.137Z,0.52
2023-03-06T00:18:17.704Z,0.52
2023-03-06T00:20:46.392Z,0.54
2023-03-06T00:23:15.759Z,0.53
2023-03-06T00:25:46.212Z,0.49
2023-03-06T00:28:16.096Z,0.46
2023-03-06T00:30:46.632Z,0.40
2023-03-06T00:33:15.225Z,0.40
2023-03-06T00:35:43.868Z,0.46
2023-03-06T00:38:15.254Z,0.48
2023-03-06T00:40:43.956Z,0.52
2023-03-06T00:43:12.869Z,0.56
2023-03-06T00:45:42.175Z,0.58
2023-03-06T00:48:10.797Z,0.60
2023-03-06T00:50:40.514Z,0.65
2023-03-06T00:53:11.672Z,0.76
2023-03-06T00:55:40.259Z,0.77
2023-03-06T00:58:08.827Z,0.77
2023-03-06T01:00:38.586Z,0.77
2023-03-06T01:03:08.336Z,0.76
2023-03-06T01:05:37.850Z,0.75
2023-03-06T01:08:09.386Z,0.73
2023-03-06T01:10:39.924Z,0.70
2023-03-06T01:13:09.049Z,0.71
2023-03-06T01:15:37.672Z,0.75
2023-03-06T01:18:06.443Z,0.74
2023-03-06T01:20:38.214Z,0.75
2023-03-06T01:23:07.412Z,0.80
2023-03-06T01:25:36.028Z,0.82
2023-03-06T01:28:05.349Z,0.84
2023-03-06T01:30:34.217Z,0.88
2023-03-06T01:33:03.093Z,0.92
2023-03-06T01:35:32.435Z,0.97
2023-03-06T01:38:01.247Z,1.01
2023-03-06T01:40:35.639Z,1.04
2023-03-06T01:43:27.098Z,1.05
2023-03-06T01:46:17.840Z,1.07
2023-03-06T01:48:48.865Z,1.14
2023-03-06T01:51:17.659Z,1.18
2023-03-06T01:53:47.643Z,1.20
2023-03-06T01:56:16.838Z,1.21
2023-03-06T01:58:46.537Z,1.12
2023-03-06T02:01:15.996Z,1.07
2023-03-06T02:03:47.933Z,1.10
2023-03-06T02:06:20.037Z,1.10
2023-03-06T02:08:52.368Z,1.13
2023-03-06T02:11:23.867Z,1.14
2023-03-06T02:13:55.366Z,1.15
2023-03-06T02:16:29.983Z,1.18
2023-03-06T02:19:02.484Z,1.19
2023-03-06T02:21:34.468Z,1.23
2023-03-06T02:24:30.050Z,1.27
2023-03-06T02:27:01.158Z,1.30
2023-03-06T02:29:31.435Z,1.33
2023-03-06T02:32:02.143Z,1.37
2023-03-06T02:34:30.852Z,1.41
2023-03-06T02:37:05.874Z,1.42
2023-03-06T02:39:39.724Z,1.41
2023-03-06T02:42:09.037Z,1.38
2023-03-06T02:44:37.993Z,1.34
2023-03-06T02:47:08.063Z,1.33
2023-03-06T02:49:36.682Z,1.33
2023-03-06T02:52:08.066Z,1.34
2023-03-06T02:54:36.749Z,1.34
2023-03-06T02:57:05.709Z,1.36
2023-03-06T02:59:35.145Z,1.40
2023-03-06T03:02:04.087Z,1.43
2023-03-06T03:04:33.056Z,1.42
2023-03-06T03:07:02.710Z,1.43
2023-03-06T03:09:37.516Z,1.46
2023-03-06T03:12:07.551Z,1.47
2023-03-06T03:14:36.255Z,1.48
2023-03-06T03:17:05.458Z,1.49
2023-03-06T03:19:34.797Z,1.50
2023-03-06T03:22:03.450Z,1.47
2023-03-06T03:24:32.467Z,1.43
2023-03-06T03:27:02.958Z,1.44
2023-03-06T03:29:32.632Z,1.48
2023-03-06T03:32:01.829Z,1.49
2023-03-06T03:34:30.982Z,1.50
2023-03-06T03:36:59.604Z,1.56
2023-03-06T03:39:28.560Z,1.61
2023-03-06T03:41:59.108Z,1.67
2023-03-06T03:44:28.369Z,1.73
2023-03-06T03:46:57.791Z,1.75
2023-03-06T03:49:26.797Z,1.75
2023-03-06T03:51:55.665Z,1.76
2023-03-06T03:54:25.076Z,1.80
2023-03-06T03:56:54.489Z,1.80
2023-03-06T03:59:27.195Z,1.78
2023-03-06T04:02:05.966Z,1.76
2023-03-06T04:04:39.108Z,1.78
2023-03-06T04:07:08.801Z,1.79
2023-03-06T04:09:38.282Z,1.80
2023-03-06T04:12:08.319Z,1.84
2023-03-06T04:14:38.308Z,1.87
2023-03-06T04:17:07.224Z,1.88
2023-03-06T04:19:36.311Z,1.89
2023-03-06T04:22:05.353Z,1.90
2023-03-06T04:24:34.623Z,1.88
2023-03-06T04:27:04.514Z,1.87
2023-03-06T04:29:33.483Z,1.87
2023-03-06T04:32:02.868Z,1.90
2023-03-06T04:34:32.122Z,1.91
2023-03-06T04:37:01.204Z,1.93
2023-03-06T04:39:30.377Z,1.94
2023-03-06T04:41:59.314Z,1.99
2023-03-06T04:44:28.688Z,2.00
2023-03-06T04:46:58.682Z,2.02
2023-03-06T04:49:27.542Z,2.06
2023-03-06T04:51:56.441Z,2.05
2023-03-06T04:54:25.125Z,2.03
2023-03-06T04:56:53.989Z,1.98
2023-03-06T04:59:23.033Z,1.92
2023-03-06T05:01:51.962Z,1.87
2023-03-06T05:04:21.305Z,1.83
2023-03-06T05:06:50.192Z,1.82
2023-03-06T05:09:18.746Z,1.82
2023-03-06T05:11:47.958Z,1.79
2023-03-06T05:14:16.645Z,1.80
2023-03-06T05:16:47.680Z,1.83
2023-03-06T05:19:17.011Z,1.88
2023-03-06T05:21:45.686Z,1.89
2023-03-06T05:24:14.262Z,1.90
2023-03-06T05:26:43.565Z,1.87
2023-03-06T05:29:12.175Z,1.84
2023-03-06T05:31:40.756Z,1.83
2023-03-06T05:34:13.856Z,1.81
2023-03-06T05:36:43.206Z,1.81
2023-03-06T05:39:11.965Z,1.79
2023-03-06T05:41:40.902Z,1.78
2023-03-06T05:44:09.908Z,1.78
2023-03-06T05:46:38.813Z,1.78
2023-03-06T05:49:07.589Z,1.83
2023-03-06T05:51:36.477Z,1.88
2023-03-06T05:54:05.040Z,1.94
2023-03-06T05:56:33.776Z,1.98
2023-03-06T05:59:03.520Z,2.07
2023-03-06T06:01:32.146Z,2.13
2023-03-06T06:04:01.228Z,2.18
2023-03-06T06:06:30.405Z,2.24
2023-03-06T06:08:58.952Z,2.28
2023-03-06T06:11:27.809Z,2.30
2023-03-06T06:13:56.772Z,2.36
2023-03-06T06:16:25.284Z,2.43
2023-03-06T06:18:54.282Z,2.53
2023-03-06T06:21:23.175Z,2.74
2023-03-06T06:23:51.805Z,3.14
2023-03-06T06:26:20.537Z,3.52
2023-03-06T06:28:49.758Z,3.65
2023-03-06T06:31:19.103Z,3.70
2023-03-06T06:33:47.926Z,3.69
2023-03-06T06:36:19.676Z,3.66
2023-03-06T06:38:50.238Z,3.69
2023-03-06T06:41:53.084Z,3.77
2023-03-06T06:44:11.790Z,3.91
2023-03-06T06:49:30.438Z,4.34
2023-03-06T06:51:59.757Z,4.40
2023-03-06T06:54:28.485Z,4.35
2023-03-06T06:56:57.184Z,4.34
2023-03-06T06:59:26.248Z,4.32
2023-03-06T07:01:54.810Z,4.42
2023-03-06T07:04:24.055Z,4.59
2023-03-06T07:06:59.054Z,4.69
2023-03-06T07:09:28.375Z,4.65
2023-03-06T07:11:58.481Z,4.69
2023-03-06T07:14:27.598Z,4.80
2023-03-06T07:16:56.738Z,4.85
2023-03-06T07:19:25.721Z,4.83
2023-03-06T07:21:54.394Z,4.88
2023-03-06T07:24:23.699Z,4.89
2023-03-06T07:26:52.741Z,4.89
2023-03-06T07:29:21.351Z,4.91
2023-03-06T07:31:50.513Z,5.02
2023-03-06T07:34:19.366Z,5.15
2023-03-06T07:36:47.950Z,5.33
2023-03-06T07:39:17.041Z,5.55
2023-03-06T07:41:46.355Z,5.70
2023-03-06T07:44:14.922Z,5.77
2023-03-06T07:46:44.067Z,5.79
2023-03-06T07:49:13.661Z,5.80
2023-03-06T07:51:42.376Z,5.82
2023-03-06T07:54:11.552Z,5.84
2023-03-06T07:56:40.509Z,5.88
2023-03-06T07:59:11.103Z,5.97
2023-03-06T08:01:40.695Z,6.11
2023-03-06T08:04:09.671Z,6.27
2023-03-06T08:06:38.269Z,6.52
2023-03-06T08:09:07.415Z,6.84
2023-03-06T08:11:36.701Z,7.07
2023-03-06T08:14:34.504Z,7.16
2023-03-06T08:17:06.562Z,7.20
2023-03-06T08:19:35.483Z,7.22
2023-03-06T08:22:06.250Z,7.28
2023-03-06T08:24:35.177Z,7.29
2023-03-06T08:27:03.912Z,7.23
2023-03-06T08:29:32.683Z,7.20
2023-03-06T08:32:01.563Z,7.17
2023-03-06T08:34:30.338Z,7.09
2023-03-06T08:36:59.094Z,7.02
2023-03-06T08:39:28.168Z,6.94
2023-03-06T08:41:56.780Z,6.92
2023-03-06T08:44:25.428Z,6.95
2023-03-06T08:46:54.279Z,6.96
2023-03-06T08:49:22.879Z,7.00
2023-03-06T08:51:51.523Z,7.03
2023-03-06T08:54:20.747Z,7.02
2023-03-06T08:56:49.387Z,7.07
2023-03-06T08:59:18.298Z,7.19
2023-03-06T09:01:47.392Z,7.23
2023-03-06T09:04:15.966Z,7.26
2023-03-06T09:06:45.700Z,7.31
2023-03-06T09:09:14.762Z,7.30
2023-03-06T09:11:43.418Z,7.32
2023-03-06T09:14:12.249Z,7.26
2023-03-06T09:16:41.623Z,7.22
2023-03-06T09:19:10.371Z,7.20
2023-03-06T09:21:48.823Z,7.21
2023-03-06T09:24:24.159Z,7.30
2023-03-06T09:26:52.900Z,7.34
2023-03-06T09:29:22.181Z,7.41
2023-03-06T09:31:51.058Z,7.45
2023-03-06T09:34:20.072Z,7.53
2023-03-06T09:36:56.917Z,7.60
2023-03-06T09:39:27.621Z,7.62
2023-03-06T09:41:58.505Z,7.65
2023-03-06T09:44:34.397Z,7.65
2023-03-06T09:47:45.878Z,7.74
2023-03-06T09:50:29.880Z,7.80
2023-03-06T09:53:20.461Z,7.84
2023-03-06T09:55:58.598Z,7.82
2023-03-06T09:58:30.054Z,7.78
2023-03-06T10:01:11.691Z,7.75
2023-03-06T10:03:54.959Z,7.69
2023-03-06T10:06:23.924Z,7.66
2023-03-06T10:09:13.524Z,7.63
2023-03-06T10:11:47.610Z,7.64
2023-03-06T10:14:40.617Z,7.65
2023-03-06T10:17:17.379Z,7.71
2023-03-06T10:19:49.698Z,7.75
2023-03-06T10:22:46.102Z,7.77
2023-03-06T10:25:24.733Z,7.82
2023-03-06T10:28:11.884Z,7.86
2023-03-06T10:30:43.657Z,7.85
2023-03-06T10:36:29.515Z,7.82
2023-03-06T10:38:59.227Z,7.73
2023-03-06T10:41:32.636Z,7.71
2023-03-06T10:44:01.380Z,7.74
2023-03-06T10:46:31.548Z,7.72
2023-03-06T10:49:23.728Z,7.65
2023-03-06T10:52:26.132Z,7.56
2023-03-06T10:55:24.015Z,7.40
2023-03-06T10:57:52.840Z,7.21
2023-03-06T11:00:32.172Z,7.04
2023-03-06T11:03:24.856Z,6.91
2023-03-06T11:06:02.703Z,6.82
2023-03-06T11:08:31.866Z,6.78
2023-03-06T11:11:07.515Z,6.79
2023-03-06T11:13:39.567Z,6.78
2023-03-06T11:16:19.346Z,6.74
2023-03-06T11:19:18.968Z,6.75
2023-03-06T11:22:20.467Z,6.79
2023-03-06T11:24:53.947Z,6.77
2023-03-06T11:27:35.034Z,6.73
2023-03-06T11:30:09.470Z,6.72
2023-03-06T11:32:46.666Z,6.75
2023-03-06T11:35:28.648Z,6.75
2023-03-06T11:38:27.317Z,6.77
2023-03-06T11:41:01.749Z,6.76
2023-03-06T11:43:35.430Z,6.75
2023-03-06T11:46:26.530Z,6.76
2023-03-06T11:49:10.500Z,6.74
2023-03-06T11:51:48.503Z,6.74
2023-03-06T11:54:17.417Z,6.77
2023-03-06T11:57:18.494Z,6.81
2023-03-06T12:00:17.684Z,6.82
2023-03-06T12:02:58.417Z,6.84
2023-03-06T12:05:32.206Z,6.85
2023-03-06T12:08:39.210Z,6.83
2023-03-06T12:11:26.746Z,6.83
2023-03-06T12:14:10.537Z,6.80
2023-03-06T12:16:39.737Z,6.72
2023-03-06T12:19:30.301Z,6.66
2023-03-06T12:22:14.234Z,6.59
2023-03-06T12:25:09.794Z,6.56
2023-03-06T12:28:15.411Z,6.58
2023-03-06T12:31:18.391Z,6.58
2023-03-06T12:34:26.193Z,6.64
2023-03-06T12:37:01.662Z,6.74
2023-03-06T12:40:07.144Z,6.87
2023-03-06T12:43:10.625Z,6.95
2023-03-06T12:45:41.293Z,7.09
2023-03-06T12:48:18.211Z,7.13
2023-03-06T12:50:48.457Z,7.18
2023-03-06T12:53:32.377Z,7.27
2023-03-06T12:56:02.952Z,7.33
2023-03-06T12:58:31.653Z,7.38
2023-03-06T13:01:20.560Z,7.45
2023-03-06T13:03:58.014Z,7.49
2023-03-06T13:07:04.771Z,7.51
2023-03-06T13:09:55.378Z,7.53
2023-03-06T13:12:42.899Z,7.55
2023-03-06T13:15:42.576Z,7.53
2023-03-06T13:18:23.742Z,7.52
2023-03-06T13:20:56.656Z,7.52
2023-03-06T13:23:34.740Z,7.50
2023-03-06T13:29:38.628Z,7.50
2023-03-06T13:32:18.739Z,7.50
2023-03-06T13:34:49.534Z,7.51
2023-03-06T13:37:18.901Z,7.55
2023-03-06T13:40:00.669Z,7.53
2023-03-06T13:42:37.474Z,7.45
2023-03-06T13:45:08.910Z,7.45
2023-03-06T13:48:22.643Z,7.47
2023-03-06T13:50:52.226Z,7.48
2023-03-06T13:53:33.782Z,7.48
2023-03-06T13:56:17.748Z,7.49
2023-03-06T13:59:00.815Z,7.49
2023-03-06T14:01:47.188Z,7.46
2023-03-06T14:04:33.129Z,7.49
2023-03-06T14:07:22.282Z,7.52
2023-03-06T14:10:21.502Z,7.57
2023-03-06T14:12:50.203Z,7.59
2023-03-06T14:15:26.504Z,7.57
2023-03-06T14:18:06.423Z,7.57
2023-03-06T14:20:39.671Z,7.58
2023-03-06T14:23:17.030Z,7.58
2023-03-06T14:25:47.633Z,7.61
2023-03-06T14:28:25.481Z,7.66
2023-03-06T14:30:56.261Z,7.73
2023-03-06T14:33:32.669Z,7.75
2023-03-06T14:36:04.565Z,7.72
2023-03-06T14:38:38.406Z,7.66
2023-03-06T14:41:12.386Z,7.61
2023-03-06T14:43:42.081Z,7.60
2023-03-06T14:46:22.488Z,7.64
2023-03-06T14:48:52.801Z,7.66
2023-03-06T14:51:23.432Z,7.59
2023-03-06T14:54:01.314Z,7.58
2023-03-06T14:56:35.551Z,7.57
2023-03-06T14:59:22.673Z,7.57
2023-03-06T15:01:58.829Z,7.57
2023-03-06T15:04:47.284Z,7.48
2023-03-06T15:07:30.825Z,7.48
2023-03-06T15:10:00.944Z,7.47
2023-03-06T15:12:34.226Z,7.45
2023-03-06T15:15:11.429Z,7.44
2023-03-06T15:17:41.071Z,7.38
2023-03-06T15:20:47.264Z,7.32
2023-03-06T15:23:21.647Z,7.24
2023-03-06T15:25:56.850Z,7.18
2023-03-06T15:28:39.826Z,7.13
2023-03-06T15:31:13.326Z,7.03
2023-03-06T15:33:42.175Z,6.97
2023-03-06T15:36:21.835Z,6.89
2023-03-06T15:38:51.324Z,6.80
2023-03-06T15:41:29.032Z,6.72
2023-03-06T15:44:03.101Z,6.64
2023-03-06T15:46:32.125Z,6.57
2023-03-06T15:49:05.252Z,6.49
2023-03-06T15:51:34.338Z,6.46
2023-03-06T15:54:11.895Z,6.39
2023-03-06T15:56:45.334Z,6.35
2023-03-06T15:59:24.185Z,6.34
2023-03-06T16:01:53.769Z,6.31
2023-03-06T16:04:22.712Z,6.26
2023-03-06T16:06:51.376Z,6.19
2023-03-06T16:09:20.261Z,6.13
2023-03-06T16:11:49.269Z,6.09
2023-03-06T16:14:21.808Z,6.05
2023-03-06T16:16:54.471Z,5.99
2023-03-06T16:19:27.425Z,5.95
2023-03-06T16:21:57.328Z,5.95
2023-03-06T16:24:27.085Z,5.91
2023-03-06T16:26:59.259Z,5.87
2023-03-06T16:29:29.863Z,5.85
2023-03-06T16:31:59.313Z,5.81
2023-03-06T16:34:30.990Z,5.80
2023-03-06T16:36:59.855Z,5.76
2023-03-06T16:39:28.704Z,5.73
2023-03-06T16:41:57.519Z,5.70
2023-03-06T16:44:26.280Z,5.68
2023-03-06T16:46:54.889Z,5.63
2023-03-06T16:49:25.441Z,5.60
2023-03-06T16:51:54.986Z,5.55
2023-03-06T16:54:26.443Z,5.46
2023-03-06T16:56:57.896Z,5.35
2023-03-06T16:59:32.191Z,5.25
2023-03-06T17:02:33.161Z,5.18
2023-03-06T17:05:12.572Z,5.14
2023-03-06T17:11:16.978Z,5.18
2023-03-06T17:13:49.473Z,5.21
2023-03-06T17:20:13.334Z,5.23
2023-03-06T17:22:42.373Z,5.21
2023-03-06T17:25:11.854Z,5.19
2023-03-06T17:27:40.741Z,5.12
2023-03-06T17:30:13.568Z,5.02
2023-03-06T17:32:42.721Z,4.92
2023-03-06T17:35:11.619Z,4.83
2023-03-06T17:37:40.448Z,4.72
2023-03-06T17:40:10.677Z,4.61
2023-03-06T17:42:39.468Z,4.50
2023-03-06T17:45:12.152Z,4.44
2023-03-06T17:47:40.960Z,4.42
2023-03-06T17:50:13.593Z,4.43
2023-03-06T17:52:42.844Z,4.42
2023-03-06T17:55:11.673Z,4.35
2023-03-06T17:57:42.755Z,4.27
2023-03-06T18:00:12.061Z,4.23
2023-03-06T18:02:57.224Z,4.24
2023-03-06T18:05:46.314Z,4.24
2023-03-06T18:08:39.229Z,4.24
2023-03-06T18:11:25.243Z,4.25
2023-03-06T18:14:15.935Z,4.25
2023-03-06T18:17:08.382Z,4.24
2023-03-06T18:19:53.826Z,4.26
2023-03-06T18:22:42.827Z,4.32
2023-03-06T18:25:38.806Z,4.40
2023-03-06T18:28:35.200Z,4.48
2023-03-06T18:31:34.394Z,4.52
2023-03-06T18:34:23.535Z,4.53
2023-03-06T18:37:25.155Z,4.58
2023-03-06T18:40:22.367Z,4.61
2023-03-06T18:43:06.914Z,4.64
2023-03-06T18:45:36.434Z,4.68
2023-03-06T18:48:06.412Z,4.69
2023-03-06T18:50:39.136Z,4.68
2023-03-06T18:53:08.509Z,4.67
2023-03-06T18:55:37.686Z,4.63
2023-03-06T18:58:06.655Z,4.56
2023-03-06T19:00:35.889Z,4.50
2023-03-06T19:03:04.705Z,4.46
2023-03-06T19:05:33.815Z,4.45
2023-03-06T19:08:03.407Z,4.44
2023-03-06T19:10:38.417Z,4.40
2023-03-06T19:13:08.519Z,4.42
2023-03-06T19:15:48.592Z,4.48
2023-03-06T19:18:18.309Z,4.55
2023-03-06T19:20:46.924Z,4.62
2023-03-06T19:23:15.849Z,4.67
2023-03-06T19:25:55.069Z,4.69
2023-03-06T19:28:23.849Z,4.67
2023-03-06T19:30:53.302Z,4.62
2023-03-06T19:33:22.042Z,4.55
2023-03-06T19:35:51.354Z,4.51
2023-03-06T19:38:20.575Z,4.40
2023-03-06T19:40:51.793Z,4.27
2023-03-06T19:43:20.984Z,4.24
2023-03-06T19:45:49.655Z,4.23
2023-03-06T19:48:18.535Z,4.19
2023-03-06T19:50:47.769Z,4.16
2023-03-06T19:53:17.166Z,4.18
2023-03-06T19:55:46.087Z,4.22
2023-03-06T19:58:15.665Z,4.23
2023-03-06T20:00:45.074Z,4.19
2023-03-06T20:03:17.611Z,4.12
2023-03-06T20:05:50.756Z,3.98
2023-03-06T20:08:19.302Z,3.95
2023-03-06T20:10:48.462Z,3.92
2023-03-06T20:13:18.861Z,3.93
2023-03-06T20:15:47.477Z,3.92
2023-03-06T20:18:16.683Z,3.89
2023-03-06T20:20:45.982Z,3.90
2023-03-06T20:23:16.578Z,3.91
2023-03-06T20:25:48.754Z,3.90
2023-03-06T20:28:17.316Z,3.91
2023-03-06T20:30:46.452Z,3.90
2023-03-06T20:33:17.122Z,3.87
2023-03-06T20:35:45.782Z,3.88
2023-03-06T20:38:14.778Z,3.93
2023-03-06T20:40:44.547Z,3.94
2023-03-06T20:43:13.333Z,3.91
2023-03-06T20:45:41.918Z,3.93
2023-03-06T20:48:10.968Z,3.90
2023-03-06T20:50:39.559Z,3.91
2023-03-06T20:53:08.171Z,3.90
2023-03-06T20:55:38.301Z,3.92
2023-03-06T20:58:07.174Z,3.94
2023-03-06T21:00:36.102Z,3.95
2023-03-06T21:03:06.074Z,3.96
2023-03-06T21:05:34.988Z,3.94
2023-03-06T21:08:03.622Z,3.91
2023-03-06T21:10:33.094Z,3.87
2023-03-06T21:13:01.636Z,3.80
2023-03-06T21:15:31.275Z,3.71
2023-03-06T21:18:00.312Z,3.65
2023-03-06T21:20:28.840Z,3.61
2023-03-06T21:22:58.061Z,3.62
2023-03-06T21:25:27.588Z,3.63
2023-03-06T21:27:56.657Z,3.66
2023-03-06T21:30:25.505Z,3.70
2023-03-06T21:32:54.858Z,3.74
2023-03-06T21:35:23.486Z,3.76
2023-03-06T21:37:52.197Z,3.77
2023-03-06T21:40:21.642Z,3.78
2023-03-06T21:42:50.173Z,3.81
2023-03-06T21:45:19.145Z,3.82
2023-03-06T21:47:49.349Z,3.82
2023-03-06T21:50:18.272Z,3.84
2023-03-06T21:52:46.852Z,3.83
2023-03-06T21:55:16.442Z,3.83
2023-03-06T21:57:50.509Z,3.80
2023-03-06T22:00:20.563Z,3.77
2023-03-06T22:02:49.768Z,3.72
2023-03-06T22:05:18.928Z,3.65
2023-03-06T22:07:47.827Z,3.61
2023-03-06T22:10:16.457Z,3.57
2023-03-06T22:12:46.908Z,3.56
2023-03-06T22:15:16.196Z,3.56
2023-03-06T22:17:45.629Z,3.57
2023-03-06T22:20:14.288Z,3.60
2023-03-06T22:22:44.384Z,3.65
2023-03-06T22:25:15.147Z,3.70
2023-03-06T22:27:43.796Z,3.71
2023-03-06T22:30:13.662Z,3.72
2023-03-06T22:32:42.563Z,3.65
2023-03-06T22:35:11.826Z,3.64
2023-03-06T22:37:40.692Z,3.61
2023-03-06T22:40:10.164Z,3.56
2023-03-06T22:42:39.011Z,3.54
2023-03-06T22:45:08.895Z,3.52
2023-03-06T22:47:38.186Z,3.53
2023-03-06T22:50:08.722Z,3.58
2023-03-06T22:52:37.505Z,3.64
2023-03-06T22:55:06.917Z,3.68
2023-03-06T22:57:36.330Z,3.66
2023-03-06T23:00:05.376Z,3.54
2023-03-06T23:02:35.421Z,3.47
2023-03-06T23:05:04.834Z,3.47
2023-03-06T23:07:33.742Z,3.51
2023-03-06T23:10:07.073Z,3.52
2023-03-06T23:12:54.783Z,3.51
2023-03-06T23:15:41.924Z,3.46
2023-03-06T23:18:30.396Z,3.47
2023-03-06T23:21:19.495Z,3.50
2023-03-06T23:24:08.055Z,3.50
2023-03-06T23:26:37.406Z,3.50
2023-03-06T23:29:06.059Z,3.50
2023-03-06T23:31:35.174Z,3.50
2023-03-06T23:34:04.341Z,3.48
2023-03-06T23:36:32.940Z,3.48
2023-03-06T23:39:02.238Z,3.51
2023-03-06T23:41:31.210Z,3.51
2023-03-06T23:44:00.130Z,3.51
2023-03-06T23:46:28.893Z,3.51
2023-03-06T23:48:57.483Z,3.50
2023-03-06T23:51:26.398Z,3.50
2023-03-06T23:53:59.073Z,3.52
2023-03-06T23:56:28.855Z,3.59
2023-03-06T23:58:57.605Z,3.65
